Time;durP1;ratioP1;P1;durP2;ratioP2;P2;SDS_P1;SDS_P2;PMS_P1;PMS_P2;Temp;Humidity;BMP_temperature;BMP_pressure;BME280_temperature;BME280_humidity;BME280_pressure;Samples;Min_cycle;Max_cycle;Signal;HPM_P1;HPM_P2
2022/05/26 00:02:23;;;;;;;18.67;7.40;;;;;;;;;;5069381;28;20503;-75
2022/05/26 00:04:50;;;;;;;18.73;7.03;;;;;;;;;;5079140;28;20511;-75
2022/05/26 00:07:16;;;;;;;20.92;7.38;;;;;;;;;;5065345;28;20643;-73
2022/05/26 00:09:43;;;;;;;16.80;7.15;;;;;;;;;;5080597;28;20152;-75
2022/05/26 00:12:12;;;;;;;18.00;6.90;;;;;;;;;;5062545;28;20608;-74
2022/05/26 00:14:40;;;;;;;24.33;7.45;;;;;;;;;;5070933;28;20140;-75
2022/05/26 00:17:06;;;;;;;19.50;7.93;;;;;;;;;;5078210;28;20144;-74
2022/05/26 00:19:33;;;;;;;20.90;7.35;;;;;;;;;;5058038;28;20053;-74
2022/05/26 00:21:59;;;;;;;16.25;7.13;;;;;;;;;;5069211;28;20548;-75
2022/05/26 00:24:25;;;;;;;23.05;8.20;;;;;;;;;;5077987;28;20059;-75
2022/05/26 00:26:52;;;;;;;20.65;8.00;;;;;;;;;;5075906;28;20091;-75
2022/05/26 00:29:18;;;;;;;18.05;7.72;;;;;;;;;;5063814;28;20186;-74
2022/05/26 00:31:45;;;;;;;17.95;7.68;;;;;;;;;;5072567;28;20139;-75
2022/05/26 00:34:11;;;;;;;16.98;8.10;;;;;;;;;;5081499;28;20139;-74
2022/05/26 00:36:38;;;;;;;21.33;8.68;;;;;;;;;;5054044;28;20444;-76
2022/05/26 00:39:13;;;;;;;24.15;8.82;;;;;;;;;;5073921;28;20163;-75
2022/05/26 00:41:47;;;;;;;18.05;8.45;;;;;;;;;;5064539;28;20673;-74
2022/05/26 00:44:14;;;;;;;19.35;8.25;;;;;;;;;;5063488;28;20053;-75
2022/05/26 00:46:46;;;;;;;22.83;8.43;;;;;;;;;;5081755;28;20124;-75
2022/05/26 00:49:16;;;;;;;23.42;9.18;;;;;;;;;;5056338;28;20482;-76
2022/05/26 00:51:43;;;;;;;29.15;9.90;;;;;;;;;;5076230;28;20084;-76
2022/05/26 00:54:13;;;;;;;22.40;9.05;;;;;;;;;;5073265;28;20049;-76
2022/05/26 00:56:45;;;;;;;25.38;9.55;;;;;;;;;;5075819;28;20063;-76
2022/05/26 00:59:35;;;;;;;21.75;9.18;;;;;;;;;;5063055;28;20537;-76
2022/05/26 01:02:02;;;;;;;23.60;9.65;;;;;;;;;;5050022;28;20055;-76
2022/05/26 01:04:34;;;;;;;29.42;9.65;;;;;;;;;;5056541;28;20247;-76
2022/05/26 01:07:06;;;;;;;25.08;9.70;;;;;;;;;;5073526;28;20425;-74
2022/05/26 01:09:32;;;;;;;26.65;9.82;;;;;;;;;;5062400;28;20052;-76
2022/05/26 01:11:59;;;;;;;23.55;9.10;;;;;;;;;;5056436;28;20064;-75
2022/05/26 01:14:29;;;;;;;20.48;9.13;;;;;;;;;;5063159;28;20048;-76
2022/05/26 01:16:56;;;;;;;;;;;;;;;;;;5063941;28;20057;-74
2022/05/26 01:19:41;;;;;;;25.55;10.25;;;;;;;;;;5059390;28;47935;-76
2022/05/26 01:22:16;;;;;;;23.33;9.65;;;;;;;;;;5082101;28;20511;-75
2022/05/26 01:25:01;;;;;;;26.90;9.32;;;;;;;;;;5058441;28;20057;-76
2022/05/26 01:27:31;;;;;;;26.95;10.52;;;;;;;;;;5073432;28;20609;-76
2022/05/26 01:29:57;;;;;;;24.10;10.40;;;;;;;;;;5060213;28;20512;-75
2022/05/26 01:32:35;;;;;;;33.08;10.10;;;;;;;;;;5081867;28;20537;-76
2022/05/26 01:35:03;;;;;;;23.50;9.93;;;;;;;;;;5070853;28;20152;-75
2022/05/26 01:37:32;;;;;;;23.60;9.73;;;;;;;;;;5082450;28;20056;-76
2022/05/26 01:40:01;;;;;;;25.35;9.68;;;;;;;;;;5066284;28;20425;-75
2022/05/26 01:42:45;;;;;;;22.48;10.60;;;;;;;;;;5078012;28;20567;-76
2022/05/26 01:45:19;;;;;;;27.17;9.60;;;;;;;;;;5081035;28;20602;-75
2022/05/26 01:47:50;;;;;;;22.80;10.30;;;;;;;;;;5051047;28;20489;-76
2022/05/26 01:50:19;;;;;;;34.60;10.60;;;;;;;;;;5080897;28;20095;-75
2022/05/26 01:53:03;;;;;;;29.23;9.82;;;;;;;;;;5066545;28;20538;-76
2022/05/26 01:55:39;;;;;;;30.25;10.00;;;;;;;;;;5062384;28;20597;-76
2022/05/26 01:58:09;;;;;;;33.60;10.38;;;;;;;;;;5076384;28;20059;-76
2022/05/26 02:00:36;;;;;;;31.17;10.63;;;;;;;;;;5064666;28;20063;-76
2022/05/26 02:03:05;;;;;;;27.33;10.13;;;;;;;;;;5076475;28;20151;-76
2022/05/26 02:05:34;;;;;;;24.23;9.70;;;;;;;;;;5079844;28;20258;-75
2022/05/26 02:08:06;;;;;;;31.77;10.23;;;;;;;;;;5072984;28;20300;-76
2022/05/26 02:10:34;;;;;;;25.58;9.43;;;;;;;;;;5061603;28;20131;-76
2022/05/26 02:13:04;;;;;;;27.25;9.75;;;;;;;;;;5054702;28;20174;-75
2022/05/26 02:15:33;;;;;;;28.92;9.25;;;;;;;;;;5078229;28;20056;-75
2022/05/26 02:18:04;;;;;;;31.55;9.18;;;;;;;;;;5083104;28;20057;-76
2022/05/26 02:20:38;;;;;;;28.88;9.15;;;;;;;;;;5071240;28;20083;-76
2022/05/26 02:23:08;;;;;;;26.05;8.68;;;;;;;;;;5079511;28;20044;-76
2022/05/26 02:25:35;;;;;;;23.02;9.30;;;;;;;;;;5079306;28;20151;-75
2022/05/26 02:28:01;;;;;;;29.38;9.15;;;;;;;;;;5083512;28;20147;-75
2022/05/26 02:30:30;;;;;;;25.65;9.00;;;;;;;;;;5083480;28;20053;-76
2022/05/26 02:32:58;;;;;;;27.40;8.77;;;;;;;;;;5060444;28;20052;-75
2022/05/26 02:35:26;;;;;;;27.27;8.10;;;;;;;;;;5051506;28;20045;-74
2022/05/26 02:37:55;;;;;;;26.58;9.05;;;;;;;;;;5074325;28;20492;-76
2022/05/26 02:40:22;;;;;;;36.60;9.53;;;;;;;;;;5075706;28;20139;-74
2022/05/26 02:42:53;;;;;;;30.30;8.85;;;;;;;;;;5076863;28;20543;-75
2022/05/26 02:45:25;;;;;;;34.40;9.10;;;;;;;;;;5082355;28;20056;-74
2022/05/26 02:48:00;;;;;;;22.80;8.90;;;;;;;;;;5081542;28;20051;-75
2022/05/26 02:50:29;;;;;;;30.60;9.82;;;;;;;;;;5076455;28;20453;-75
2022/05/26 02:53:01;;;;;;;27.85;8.32;;;;;;;;;;5076335;28;20687;-75
2022/05/26 02:55:43;;;;;;;26.48;8.77;;;;;;;;;;5075697;28;20742;-75
2022/05/26 02:58:13;;;;;;;27.63;8.52;;;;;;;;;;5068605;28;20049;-75
2022/05/26 03:00:39;;;;;;;28.50;8.82;;;;;;;;;;5077487;28;20577;-74
2022/05/26 03:03:09;;;;;;;26.30;8.45;;;;;;;;;;5074248;28;20792;-75
2022/05/26 03:05:38;;;;;;;27.65;8.45;;;;;;;;;;5074719;28;20059;-76
2022/05/26 03:08:06;;;;;;;27.60;8.73;;;;;;;;;;5083597;28;20143;-74
2022/05/26 03:10:33;;;;;;;24.95;8.20;;;;;;;;;;5057499;28;20063;-77
2022/05/26 03:12:59;;;;;;;30.05;8.85;;;;;;;;;;5057782;28;20472;-73
2022/05/26 03:15:27;;;;;;;25.95;9.05;;;;;;;;;;5073425;28;20171;-74
2022/05/26 03:17:53;;;;;;;31.20;9.27;;;;;;;;;;5077529;28;20119;-76
2022/05/26 03:20:19;;;;;;;35.63;9.95;;;;;;;;;;5082109;28;20048;-73
2022/05/26 03:22:46;;;;;;;31.38;8.00;;;;;;;;;;5053421;28;21006;-74
2022/05/26 03:25:12;;;;;;;28.20;8.32;;;;;;;;;;5052459;28;20053;-75
2022/05/26 03:27:39;;;;;;;38.45;9.45;;;;;;;;;;5064573;28;20539;-76
2022/05/26 03:30:05;;;;;;;30.13;8.82;;;;;;;;;;5065248;28;20143;-76
2022/05/26 03:32:32;;;;;;;27.17;8.40;;;;;;;;;;5062175;28;20599;-75
2022/05/26 03:43:39;;;;;;;38.20;7.97;;;;;;;;;;5060231;28;20520;-76
2022/05/26 03:46:06;;;;;;;33.45;8.60;;;;;;;;;;5075598;28;20056;-74
2022/05/26 03:48:32;;;;;;;33.08;8.23;;;;;;;;;;5082026;28;20155;-75
2022/05/26 03:50:58;;;;;;;29.02;8.55;;;;;;;;;;5078687;28;20041;-75
2022/05/26 03:53:25;;;;;;;29.77;8.30;;;;;;;;;;5081382;28;20102;-75
2022/05/26 03:55:51;;;;;;;29.42;7.95;;;;;;;;;;5081426;28;20595;-75
2022/05/26 03:58:17;;;;;;;24.40;8.32;;;;;;;;;;5059763;28;20059;-74
2022/05/26 04:00:44;;;;;;;24.70;7.60;;;;;;;;;;5077389;28;20056;-74
2022/05/26 04:03:10;;;;;;;28.83;7.55;;;;;;;;;;5077826;28;20136;-75
2022/05/26 04:05:37;;;;;;;26.83;7.72;;;;;;;;;;5073479;28;20056;-75
2022/05/26 04:08:03;;;;;;;27.08;8.10;;;;;;;;;;5058504;28;20521;-75
2022/05/26 04:10:29;;;;;;;29.73;7.88;;;;;;;;;;5079017;28;20143;-76
2022/05/26 04:12:56;;;;;;;23.08;7.65;;;;;;;;;;5082251;28;20059;-74
2022/05/26 04:15:23;;;;;;;30.30;7.78;;;;;;;;;;5058594;28;20222;-75
2022/05/26 04:17:49;;;;;;;26.23;7.38;;;;;;;;;;5075444;28;20437;-75
2022/05/26 04:20:17;;;;;;;28.83;8.02;;;;;;;;;;5081956;28;20052;-75
2022/05/26 04:22:44;;;;;;;28.70;7.60;;;;;;;;;;5074011;28;20049;-75
2022/05/26 04:25:10;;;;;;;29.70;7.95;;;;;;;;;;5073924;28;20272;-75
2022/05/26 04:27:37;;;;;;;26.10;6.88;;;;;;;;;;5043608;28;20215;-75
2022/05/26 04:30:05;;;;;;;29.60;7.53;;;;;;;;;;5058185;28;20044;-75
2022/05/26 04:32:31;;;;;;;26.65;7.25;;;;;;;;;;5058347;28;20225;-74
2022/05/26 04:34:58;;;;;;;33.00;7.40;;;;;;;;;;5057145;28;20057;-75
2022/05/26 04:37:25;;;;;;;31.20;7.90;;;;;;;;;;5079151;28;20135;-75
2022/05/26 04:39:53;;;;;;;26.83;7.50;;;;;;;;;;5083716;28;20052;-74
2022/05/26 04:42:20;;;;;;;20.20;7.25;;;;;;;;;;5066314;28;20540;-75
2022/05/26 04:44:47;;;;;;;30.45;7.60;;;;;;;;;;5070339;28;20127;-75
2022/05/26 04:47:14;;;;;;;29.75;7.50;;;;;;;;;;5080344;28;20109;-75
2022/05/26 04:49:40;;;;;;;20.48;6.47;;;;;;;;;;5077127;28;20048;-75
2022/05/26 04:52:08;;;;;;;24.30;6.78;;;;;;;;;;5082793;28;20064;-75
2022/05/26 04:54:38;;;;;;;20.02;6.13;;;;;;;;;;5070449;28;20131;-73
2022/05/26 04:57:05;;;;;;;22.77;6.47;;;;;;;;;;5079333;28;20143;-75
2022/05/26 04:59:32;;;;;;;21.65;6.40;;;;;;;;;;5068644;28;20053;-75
2022/05/26 05:01:58;;;;;;;25.48;6.30;;;;;;;;;;5083383;28;20048;-75
2022/05/26 05:04:25;;;;;;;23.42;5.80;;;;;;;;;;5056054;28;20052;-75
2022/05/26 05:06:52;;;;;;;23.77;6.65;;;;;;;;;;5080006;28;20040;-75
2022/05/26 05:09:18;;;;;;;26.63;5.78;;;;;;;;;;5080334;28;20059;-75
2022/05/26 05:11:45;;;;;;;26.15;5.85;;;;;;;;;;5085528;28;20054;-75
2022/05/26 05:14:11;;;;;;;22.98;6.68;;;;;;;;;;5077622;28;20052;-73
2022/05/26 05:16:42;;;;;;;18.30;5.60;;;;;;;;;;5067192;28;20537;-73
2022/05/26 05:19:13;;;;;;;21.38;5.35;;;;;;;;;;5083756;28;20056;-76
2022/05/26 05:21:41;;;;;;;20.20;5.07;;;;;;;;;;5078534;28;20132;-76
2022/05/26 05:24:17;;;;;;;15.95;4.72;;;;;;;;;;5079713;28;20049;-76
2022/05/26 05:26:47;;;;;;;20.55;5.57;;;;;;;;;;5066512;28;20590;-76
2022/05/26 05:29:15;;;;;;;22.27;4.82;;;;;;;;;;5084798;28;20509;-76
2022/05/26 05:31:44;;;;;;;15.98;4.82;;;;;;;;;;5081822;28;20219;-75
2022/05/26 05:34:14;;;;;;;15.98;4.65;;;;;;;;;;5063598;28;20154;-75
2022/05/26 05:36:40;;;;;;;15.77;3.80;;;;;;;;;;5073278;28;20061;-76
2022/05/26 05:39:06;;;;;;;13.65;4.45;;;;;;;;;;5081536;28;20143;-75
2022/05/26 05:41:34;;;;;;;16.83;4.20;;;;;;;;;;5081363;28;20202;-75
2022/05/26 05:44:01;;;;;;;14.73;4.10;;;;;;;;;;5057947;28;20063;-75
2022/05/26 05:46:34;;;;;;;13.10;3.92;;;;;;;;;;5054495;28;20057;-76
2022/05/26 05:49:02;;;;;;;7.97;3.30;;;;;;;;;;5075756;28;20056;-76
2022/05/26 05:51:28;;;;;;;11.88;3.53;;;;;;;;;;5081990;28;20136;-75
2022/05/26 05:53:55;;;;;;;14.07;3.35;;;;;;;;;;5079296;28;20106;-76
2022/05/26 05:56:21;;;;;;;13.77;3.25;;;;;;;;;;5063117;28;20056;-75
2022/05/26 05:58:47;;;;;;;11.02;3.05;;;;;;;;;;5084154;28;20053;-76
2022/05/26 06:01:14;;;;;;;11.70;3.53;;;;;;;;;;5053898;28;20056;-74
2022/05/26 06:03:40;;;;;;;12.80;3.25;;;;;;;;;;5065499;28;20148;-76
2022/05/26 06:06:10;;;;;;;12.27;3.58;;;;;;;;;;5059909;28;20060;-75
2022/05/26 06:08:37;;;;;;;11.45;2.83;;;;;;;;;;5065068;28;20063;-75
2022/05/26 06:11:04;;;;;;;13.90;3.22;;;;;;;;;;5078333;28;20140;-76
2022/05/26 06:13:30;;;;;;;9.80;3.05;;;;;;;;;;5055982;28;20049;-76
2022/05/26 06:15:56;;;;;;;13.05;3.40;;;;;;;;;;5052800;28;20049;-75
2022/05/26 06:18:23;;;;;;;12.98;2.85;;;;;;;;;;5080778;28;20053;-75
2022/05/26 06:20:49;;;;;;;17.30;3.15;;;;;;;;;;5047804;28;20065;-75
2022/05/26 06:23:18;;;;;;;10.90;3.38;;;;;;;;;;5061206;28;20416;-76
2022/05/26 06:25:45;;;;;;;10.75;2.85;;;;;;;;;;5052701;28;20642;-75
2022/05/26 06:30:56;;;;;;;11.07;2.88;;;;;;;;;;5072260;28;20096;-75
2022/05/26 06:38:56;;;;;;;13.60;2.70;;;;;;;;;;5061818;28;20509;-75
2022/05/26 06:44:10;;;;;;;8.32;2.30;;;;;;;;;;5064835;28;20521;-76
2022/05/26 06:46:36;;;;;;;9.00;2.10;;;;;;;;;;5085048;28;20151;-76
2022/05/26 06:49:02;;;;;;;12.60;2.50;;;;;;;;;;5070247;28;20131;-75
2022/05/26 06:51:29;;;;;;;8.65;2.38;;;;;;;;;;5064902;28;20131;-75
2022/05/26 06:53:55;;;;;;;6.60;1.80;;;;;;;;;;5062987;28;20480;-75
2022/05/26 06:56:22;;;;;;;11.65;2.17;;;;;;;;;;5067127;28;20053;-76
2022/05/26 06:58:48;;;;;;;10.13;2.00;;;;;;;;;;5082972;28;20052;-76
2022/05/26 07:01:14;;;;;;;10.10;1.83;;;;;;;;;;5064292;28;20584;-76
2022/05/26 07:03:41;;;;;;;8.15;2.10;;;;;;;;;;5064452;28;20049;-75
2022/05/26 07:06:16;;;;;;;9.63;2.78;;;;;;;;;;5064532;28;20087;-75
2022/05/26 07:08:46;;;;;;;12.20;2.15;;;;;;;;;;5061071;28;20139;-75
2022/05/26 07:11:13;;;;;;;7.07;2.00;;;;;;;;;;5069525;28;20135;-76
2022/05/26 07:13:39;;;;;;;9.60;2.10;;;;;;;;;;5063382;28;20555;-76
2022/05/26 07:16:05;;;;;;;8.98;2.00;;;;;;;;;;5061204;28;20055;-76
2022/05/26 07:18:32;;;;;;;5.70;1.85;;;;;;;;;;5071102;28;20060;-75
2022/05/26 07:21:01;;;;;;;12.63;1.77;;;;;;;;;;5072116;28;20067;-76
2022/05/26 07:23:27;;;;;;;9.07;1.98;;;;;;;;;;5060903;28;20053;-76
2022/05/26 07:25:53;;;;;;;7.60;1.65;;;;;;;;;;5063573;28;20059;-76
2022/05/26 07:28:20;;;;;;;5.68;1.45;;;;;;;;;;5077986;28;20071;-76
2022/05/26 07:30:46;;;;;;;6.70;1.98;;;;;;;;;;5065087;28;20049;-77
2022/05/26 07:33:12;;;;;;;9.77;2.08;;;;;;;;;;5083826;28;20079;-76
2022/05/26 07:35:38;;;;;;;8.00;2.25;;;;;;;;;;5062772;28;20056;-77
2022/05/26 07:43:36;;;;;;;5.25;1.35;;;;;;;;;;5081452;28;20072;-76
2022/05/26 07:46:03;;;;;;;7.18;1.83;;;;;;;;;;5082023;28;20049;-75
2022/05/26 07:48:29;;;;;;;7.57;1.60;;;;;;;;;;5080595;28;20058;-75
2022/05/26 07:50:56;;;;;;;6.63;1.40;;;;;;;;;;5065342;28;20606;-75
2022/05/26 07:53:22;;;;;;;8.00;1.55;;;;;;;;;;5062995;28;20052;-75
2022/05/26 07:55:48;;;;;;;7.05;1.77;;;;;;;;;;5074019;28;20131;-75
2022/05/26 07:58:15;;;;;;;7.03;1.48;;;;;;;;;;5077675;28;20095;-76
2022/05/26 08:00:41;;;;;;;8.63;1.90;;;;;;;;;;5081538;28;20053;-74
2022/05/26 08:03:08;;;;;;;5.25;1.60;;;;;;;;;;5061948;28;20076;-75
2022/05/26 08:05:34;;;;;;;7.68;1.77;;;;;;;;;;5072689;28;20079;-75
2022/05/26 08:08:00;;;;;;;6.63;1.42;;;;;;;;;;5067004;28;20048;-73
2022/05/26 08:10:27;;;;;;;5.47;1.45;;;;;;;;;;5056689;28;20107;-74
2022/05/26 08:12:53;;;;;;;7.63;1.40;;;;;;;;;;5070305;28;20087;-74
2022/05/26 08:15:26;;;;;;;5.80;1.20;;;;;;;;;;5067182;28;20688;-75
2022/05/26 08:17:52;;;;;;;5.82;1.33;;;;;;;;;;5077066;28;20087;-73
2022/05/26 08:20:18;;;;;;;6.22;1.30;;;;;;;;;;5050659;28;20056;-75
2022/05/26 08:22:46;;;;;;;6.20;1.42;;;;;;;;;;5053180;28;20084;-74
2022/05/26 08:25:12;;;;;;;6.80;1.48;;;;;;;;;;5074407;28;20718;-75
2022/05/26 08:27:39;;;;;;;4.20;1.60;;;;;;;;;;5077213;28;20053;-75
2022/05/26 08:30:07;;;;;;;7.20;1.98;;;;;;;;;;5081878;28;20056;-76
2022/05/26 08:32:33;;;;;;;8.38;2.38;;;;;;;;;;5071262;28;20059;-76
2022/05/26 08:35:00;;;;;;;9.73;2.28;;;;;;;;;;5058120;28;20053;-75
2022/05/26 08:37:27;;;;;;;6.72;1.65;;;;;;;;;;5073466;28;20373;-74
2022/05/26 08:39:54;;;;;;;5.93;1.90;;;;;;;;;;5058539;28;20054;-75
2022/05/26 08:42:23;;;;;;;8.77;2.10;;;;;;;;;;5058100;28;20441;-75
2022/05/26 08:44:50;;;;;;;7.90;2.03;;;;;;;;;;5065890;28;20049;-75
2022/05/26 08:47:20;;;;;;;8.30;1.88;;;;;;;;;;5055869;28;20511;-75
2022/05/26 08:49:51;;;;;;;8.07;2.20;;;;;;;;;;5079675;28;20052;-75
2022/05/26 08:52:37;;;;;;;7.75;2.22;;;;;;;;;;5067488;28;20049;-76
2022/05/26 08:55:15;;;;;;;9.95;2.85;;;;;;;;;;5076899;28;20053;-76
2022/05/26 08:57:42;;;;;;;8.10;2.58;;;;;;;;;;5054481;28;20591;-77
2022/05/26 09:00:11;;;;;;;13.63;2.72;;;;;;;;;;5064090;28;20064;-76
2022/05/26 09:02:37;;;;;;;9.60;3.00;;;;;;;;;;5074632;28;20053;-76
2022/05/26 09:05:06;;;;;;;8.13;2.47;;;;;;;;;;5071213;28;20080;-75
2022/05/26 09:13:27;;;;;;;9.40;2.42;;;;;;;;;;5075894;28;20161;-76
2022/05/26 09:15:53;;;;;;;6.95;2.20;;;;;;;;;;5063910;28;20045;-82
2022/05/26 09:18:24;;;;;;;7.93;2.47;;;;;;;;;;5078535;28;20044;-76
2022/05/26 09:20:51;;;;;;;5.43;1.95;;;;;;;;;;5060398;28;20448;-77
2022/05/26 09:23:25;;;;;;;7.18;2.20;;;;;;;;;;5072319;28;20186;-77
2022/05/26 09:25:53;;;;;;;8.00;2.60;;;;;;;;;;5054034;28;20501;-77
2022/05/26 09:28:31;;;;;;;8.93;2.67;;;;;;;;;;5069146;28;20055;-77
2022/05/26 09:31:15;;;;;;;5.65;2.33;;;;;;;;;;5075354;28;20131;-77
2022/05/26 09:33:42;;;;;;;8.35;2.28;;;;;;;;;;5086109;28;20064;-77
2022/05/26 09:36:25;;;;;;;6.97;2.30;;;;;;;;;;5067078;28;20581;-77
2022/05/26 09:38:52;;;;;;;6.30;2.38;;;;;;;;;;5084434;28;20613;-77
2022/05/26 09:41:19;;;;;;;7.60;1.92;;;;;;;;;;5065566;28;20067;-77
2022/05/26 09:43:50;;;;;;;9.40;1.80;;;;;;;;;;5081184;28;20056;-77
2022/05/26 09:46:17;;;;;;;7.65;1.95;;;;;;;;;;5065214;28;20830;-76
2022/05/26 09:48:45;;;;;;;7.45;1.85;;;;;;;;;;5067753;28;20079;-77
2022/05/26 09:51:20;;;;;;;6.43;1.60;;;;;;;;;;5078559;28;20137;-77
2022/05/26 09:53:46;;;;;;;8.52;2.10;;;;;;;;;;5072501;28;20063;-77
2022/05/26 09:56:25;;;;;;;4.57;1.42;;;;;;;;;;5085011;28;20135;-77
2022/05/26 09:58:51;;;;;;;7.28;1.50;;;;;;;;;;5054433;28;20088;-77
2022/05/26 10:01:23;;;;;;;6.55;1.30;;;;;;;;;;5069290;28;20523;-77
2022/05/26 10:04:04;;;;;;;6.32;1.20;;;;;;;;;;5071095;28;20063;-77
2022/05/26 10:06:33;;;;;;;7.75;1.67;;;;;;;;;;5069252;28;20144;-77
2022/05/26 10:09:09;;;;;;;5.30;1.55;;;;;;;;;;5067347;28;20115;-78
2022/05/26 10:11:40;;;;;;;6.95;1.40;;;;;;;;;;5081037;28;20058;-77
2022/05/26 10:14:09;;;;;;;6.05;1.33;;;;;;;;;;5080029;28;20626;-78
2022/05/26 10:16:36;;;;;;;5.60;1.70;;;;;;;;;;5068114;28;20072;-77
2022/05/26 10:19:11;;;;;;;5.53;1.02;;;;;;;;;;5065247;28;20060;-77
2022/05/26 10:21:57;;;;;;;6.65;1.85;;;;;;;;;;5051967;28;20139;-79
2022/05/26 10:24:26;;;;;;;5.45;1.42;;;;;;;;;;5083143;28;20062;-78
2022/05/26 10:27:02;;;;;;;5.63;1.53;;;;;;;;;;5069167;28;20503;-77
2022/05/26 10:29:45;;;;;;;7.47;1.60;;;;;;;;;;5084173;28;20263;-77
2022/05/26 10:32:15;;;;;;;7.65;1.70;;;;;;;;;;5080407;28;20055;-77
2022/05/26 10:34:41;;;;;;;;;;;;;;;;;;5044283;28;20043;-77
2022/05/26 10:37:20;;;;;;;9.45;1.55;;;;;;;;;;5057484;28;44633;-77
2022/05/26 10:39:46;;;;;;;6.47;1.42;;;;;;;;;;5060287;28;20124;-78
2022/05/26 10:42:23;;;;;;;6.80;1.52;;;;;;;;;;5054943;28;20306;-77
2022/05/26 10:45:01;;;;;;;7.97;1.75;;;;;;;;;;5067848;28;20098;-77
2022/05/26 10:47:32;;;;;;;6.38;1.60;;;;;;;;;;5080250;28;20106;-78
2022/05/26 10:50:02;;;;;;;5.07;1.40;;;;;;;;;;5072478;28;20044;-78
2022/05/26 10:52:34;;;;;;;6.35;1.77;;;;;;;;;;5063761;28;20096;-79
2022/05/26 10:55:05;;;;;;;7.15;1.85;;;;;;;;;;5071041;28;20190;-78
2022/05/26 10:57:35;;;;;;;6.68;1.75;;;;;;;;;;5069494;28;20052;-78
2022/05/26 11:00:04;;;;;;;6.03;1.80;;;;;;;;;;5074844;28;20198;-77
2022/05/26 11:02:47;;;;;;;7.47;1.67;;;;;;;;;;5068739;28;22123;-76
2022/05/26 11:05:17;;;;;;;8.32;1.55;;;;;;;;;;5056193;28;20083;-76
2022/05/26 11:07:52;;;;;;;7.50;1.52;;;;;;;;;;5065405;28;20590;-76
2022/05/26 11:10:38;;;;;;;7.25;1.60;;;;;;;;;;5067314;28;20060;-77
2022/05/26 11:13:04;;;;;;;7.35;1.70;;;;;;;;;;5067206;28;20056;-78
2022/05/26 11:18:27;;;;;;;6.10;1.60;;;;;;;;;;5063902;28;20082;-77
2022/05/26 11:20:54;;;;;;;6.78;1.60;;;;;;;;;;5063756;28;20145;-77
2022/05/26 11:23:21;;;;;;;7.68;1.83;;;;;;;;;;5057300;28;20807;-78
2022/05/26 11:25:51;;;;;;;5.57;1.40;;;;;;;;;;5050145;28;20055;-78
2022/05/26 11:28:25;;;;;;;6.15;1.73;;;;;;;;;;5076454;28;20049;-78
2022/05/26 11:36:36;;;;;;;9.38;1.77;;;;;;;;;;5085957;28;20048;-79
2022/05/26 11:39:06;;;;;;;8.07;1.75;;;;;;;;;;5080664;28;20061;-79
2022/05/26 11:41:45;;;;;;;8.00;1.52;;;;;;;;;;5084754;28;20084;-77
2022/05/26 11:44:11;;;;;;;5.70;1.40;;;;;;;;;;5076242;28;20976;-78
2022/05/26 11:46:44;;;;;;;6.60;1.33;;;;;;;;;;5060152;28;20135;-78
2022/05/26 11:49:31;;;;;;;9.70;1.67;;;;;;;;;;5059265;28;20165;-79
2022/05/26 11:51:57;;;;;;;5.78;1.45;;;;;;;;;;5063582;28;20131;-79
2022/05/26 11:54:42;;;;;;;6.57;1.42;;;;;;;;;;5078011;28;20147;-79
2022/05/26 11:57:27;;;;;;;5.20;1.35;;;;;;;;;;5074907;28;20533;-79
2022/05/26 11:59:54;;;;;;;5.15;1.15;;;;;;;;;;5078059;28;20056;-80
2022/05/26 12:02:30;;;;;;;7.20;1.20;;;;;;;;;;5055259;28;20052;-79
2022/05/26 12:05:17;;;;;;;6.32;1.30;;;;;;;;;;5052186;28;20052;-79
2022/05/26 12:07:45;;;;;;;4.93;1.10;;;;;;;;;;5059407;28;20123;-79
2022/05/26 12:10:18;;;;;;;7.60;1.30;;;;;;;;;;5051077;28;20725;-79
2022/05/26 12:12:45;;;;;;;5.70;1.33;;;;;;;;;;5057179;28;20053;-78
2022/05/26 12:15:19;;;;;;;4.10;1.10;;;;;;;;;;5068550;28;20163;-79
2022/05/26 12:17:55;;;;;;;6.30;1.40;;;;;;;;;;5054958;28;20589;-78
2022/05/26 12:20:23;;;;;;;4.60;1.10;;;;;;;;;;5049804;28;20865;-79
2022/05/26 12:22:50;;;;;;;5.25;1.10;;;;;;;;;;5070033;28;20516;-78
2022/05/26 12:25:19;;;;;;;6.05;0.90;;;;;;;;;;5072344;28;20083;-78
2022/05/26 12:27:49;;;;;;;4.40;1.00;;;;;;;;;;5057342;28;20048;-79
2022/05/26 12:30:34;;;;;;;5.95;1.08;;;;;;;;;;5049496;28;20286;-79
2022/05/26 12:33:21;;;;;;;6.00;1.27;;;;;;;;;;5074112;28;20060;-79
2022/05/26 12:35:50;;;;;;;6.93;1.25;;;;;;;;;;5071311;28;20064;-78
2022/05/26 12:38:27;;;;;;;9.18;1.40;;;;;;;;;;5068841;28;20539;-77
2022/05/26 12:41:03;;;;;;;6.82;1.30;;;;;;;;;;5046558;28;20144;-78
2022/05/26 12:43:45;;;;;;;6.45;1.15;;;;;;;;;;5080930;28;20493;-78
2022/05/26 12:46:18;;;;;;;8.52;1.58;;;;;;;;;;5060799;28;20063;-78
2022/05/26 12:49:04;;;;;;;7.20;1.17;;;;;;;;;;5072227;28;20140;-79
2022/05/26 12:51:38;;;;;;;10.45;1.30;;;;;;;;;;5048644;28;20130;-78
2022/05/26 12:54:18;;;;;;;5.18;1.35;;;;;;;;;;5073286;28;20056;-79
2022/05/26 12:56:54;;;;;;;6.35;1.33;;;;;;;;;;5077803;28;20146;-78
2022/05/26 12:59:22;;;;;;;7.00;1.10;;;;;;;;;;5055097;28;20118;-78
2022/05/26 13:01:49;;;;;;;6.68;1.50;;;;;;;;;;5073302;28;20505;-78
2022/05/26 13:04:19;;;;;;;5.25;1.10;;;;;;;;;;5086785;28;20060;-78
2022/05/26 13:06:47;;;;;;;4.70;1.23;;;;;;;;;;5055584;28;20107;-78
2022/05/26 13:09:15;;;;;;;3.97;1.20;;;;;;;;;;5064682;28;20121;-79
2022/05/26 13:11:52;;;;;;;6.72;1.25;;;;;;;;;;5076671;28;20168;-79
2022/05/26 13:14:28;;;;;;;5.93;1.25;;;;;;;;;;5073829;28;20132;-79
2022/05/26 13:16:57;;;;;;;4.93;1.02;;;;;;;;;;5058260;28;20544;-79
2022/05/26 13:19:23;;;;;;;5.78;1.42;;;;;;;;;;5046377;28;20215;-79
2022/05/26 13:21:52;;;;;;;6.32;1.27;;;;;;;;;;5065830;28;20055;-79
2022/05/26 13:24:27;;;;;;;4.80;1.25;;;;;;;;;;5073125;28;20523;-79
2022/05/26 13:26:58;;;;;;;5.30;1.10;;;;;;;;;;5069291;28;20128;-79
2022/05/26 13:29:26;;;;;;;5.78;1.42;;;;;;;;;;5052764;28;20049;-79
2022/05/26 13:34:51;;;;;;;6.18;1.67;;;;;;;;;;5068150;28;20269;-79
2022/05/26 13:37:22;;;;;;;5.70;1.75;;;;;;;;;;5066137;28;20467;-79
2022/05/26 13:40:21;;;;;;;5.05;1.30;;;;;;;;;;5082189;28;20543;-79
2022/05/26 13:42:48;;;;;;;5.38;1.30;;;;;;;;;;5021332;28;20509;-79
2022/05/26 13:45:28;;;;;;;4.80;1.25;;;;;;;;;;5047756;28;20057;-79
2022/05/26 13:48:13;;;;;;;6.78;1.40;;;;;;;;;;5051212;28;20063;-79
2022/05/26 13:50:46;;;;;;;7.07;1.40;;;;;;;;;;5065362;28;20839;-79
2022/05/26 13:53:14;;;;;;;8.02;1.38;;;;;;;;;;5067196;28;20132;-79
2022/05/26 13:55:44;;;;;;;6.90;1.40;;;;;;;;;;5086386;28;20059;-79
2022/05/26 13:58:10;;;;;;;5.38;1.15;;;;;;;;;;5062326;28;20052;-79
2022/05/26 14:00:37;;;;;;;5.88;1.10;;;;;;;;;;5078953;28;20062;-79
2022/05/26 14:03:06;;;;;;;5.10;1.30;;;;;;;;;;5071726;28;20112;-80
2022/05/26 14:05:34;;;;;;;5.50;1.40;;;;;;;;;;5072030;28;20499;-79
2022/05/26 14:08:07;;;;;;;7.15;1.30;;;;;;;;;;5060205;28;20509;-79
2022/05/26 14:10:40;;;;;;;8.20;1.48;;;;;;;;;;5050850;28;20088;-79
2022/05/26 14:13:24;;;;;;;6.07;1.30;;;;;;;;;;5058552;28;20134;-79
2022/05/26 14:15:56;;;;;;;5.32;1.10;;;;;;;;;;5076545;28;20052;-78
2022/05/26 14:18:22;;;;;;;5.03;1.17;;;;;;;;;;5083089;28;20512;-77
2022/05/26 14:20:58;;;;;;;4.40;1.02;;;;;;;;;;5079692;28;20139;-78
2022/05/26 14:23:25;;;;;;;3.35;0.90;;;;;;;;;;5060028;28;20057;-78
2022/05/26 14:25:56;;;;;;;4.03;0.80;;;;;;;;;;5079957;28;20060;-78
2022/05/26 14:28:29;;;;;;;6.60;1.02;;;;;;;;;;5075669;28;20060;-77
2022/05/26 14:30:56;;;;;;;5.60;1.08;;;;;;;;;;5081439;28;20090;-77
2022/05/26 14:33:24;;;;;;;5.82;1.20;;;;;;;;;;5063991;28;20098;-77
2022/05/26 14:35:51;;;;;;;4.90;1.27;;;;;;;;;;5058467;28;20076;-77
2022/05/26 14:38:17;;;;;;;3.63;0.82;;;;;;;;;;5063272;28;20052;-76
2022/05/26 14:40:44;;;;;;;7.07;1.10;;;;;;;;;;5060097;28;20291;-78
2022/05/26 14:43:17;;;;;;;6.97;1.10;;;;;;;;;;5063117;28;20053;-78
2022/05/26 14:45:44;;;;;;;4.05;1.17;;;;;;;;;;5066905;28;20346;-78
2022/05/26 14:48:10;;;;;;;6.88;1.50;;;;;;;;;;5058435;28;20057;-78
2022/05/26 14:50:38;;;;;;;7.22;1.13;;;;;;;;;;5076402;28;20483;-78
2022/05/26 14:53:06;;;;;;;6.10;1.30;;;;;;;;;;5064285;28;20552;-78
2022/05/26 14:55:34;;;;;;;5.50;1.23;;;;;;;;;;5079884;28;20057;-78
2022/05/26 14:58:09;;;;;;;10.18;1.50;;;;;;;;;;5080379;28;20549;-78
2022/05/26 15:00:38;;;;;;;6.93;1.33;;;;;;;;;;5076159;28;20225;-78
2022/05/26 15:03:06;;;;;;;5.95;1.35;;;;;;;;;;5066148;28;20088;-78
2022/05/26 15:05:33;;;;;;;6.53;1.35;;;;;;;;;;5066855;28;20513;-78
2022/05/26 15:08:00;;;;;;;6.78;1.15;;;;;;;;;;5065860;28;20080;-78
2022/05/26 15:10:26;;;;;;;6.28;1.40;;;;;;;;;;5064106;28;20505;-77
2022/05/26 15:12:53;;;;;;;4.47;1.20;;;;;;;;;;5085879;28;20057;-78
2022/05/26 15:15:19;;;;;;;5.68;1.20;;;;;;;;;;5073149;28;20055;-78
2022/05/26 15:17:46;;;;;;;5.68;1.40;;;;;;;;;;5064715;28;20057;-78
2022/05/26 15:20:14;;;;;;;4.97;1.23;;;;;;;;;;5063283;28;20147;-77
2022/05/26 15:22:41;;;;;;;7.32;1.20;;;;;;;;;;5065152;28;20227;-78
2022/05/26 15:25:09;;;;;;;7.63;1.73;;;;;;;;;;5054449;28;20053;-78
2022/05/26 15:27:36;;;;;;;8.15;1.63;;;;;;;;;;5068639;28;20507;-77
2022/05/26 15:30:03;;;;;;;9.23;1.30;;;;;;;;;;5084623;28;20131;-78
2022/05/26 15:32:29;;;;;;;5.70;1.50;;;;;;;;;;5084714;28;20056;-78
2022/05/26 15:34:56;;;;;;;4.68;1.42;;;;;;;;;;5060712;28;20087;-78
2022/05/26 15:37:22;;;;;;;5.40;1.60;;;;;;;;;;5085673;28;20049;-77